sensor_id;sensor_type;location;lat;lon;timestamp;pressure;altitude;pressure_sealevel;temperature;humidity
69737;BME280;64476;55.004;73.342;2023-05-19T00:02:26;102151.72;;;4.30;37.42
69737;BME280;64476;55.004;73.342;2023-05-19T00:06:06;102121.38;;;4.13;37.34
69737;BME280;64476;55.004;73.342;2023-05-19T00:09:11;102117.34;;;4.08;37.34
69737;BME280;64476;55.004;73.342;2023-05-19T00:12:17;102082.03;;;3.86;37.22
69737;BME280;64476;55.004;73.342;2023-05-19T00:15:21;102087.16;;;3.88;37.71
69737;BME280;64476;55.004;73.342;2023-05-19T00:18:23;102133.25;;;4.19;37.37
69737;BME280;64476;55.004;73.342;2023-05-19T00:21:25;102155.78;;;4.36;37.63
69737;BME280;64476;55.004;73.342;2023-05-19T00:24:27;102157.53;;;4.35;37.63
69737;BME280;64476;55.004;73.342;2023-05-19T00:27:29;102143.16;;;4.28;37.51
69737;BME280;64476;55.004;73.342;2023-05-19T00:30:30;102144.44;;;4.37;37.49
69737;BME280;64476;55.004;73.342;2023-05-19T00:33:33;102158.69;;;4.47;37.42
69737;BME280;64476;55.004;73.342;2023-05-19T00:36:35;102109.72;;;4.20;37.42
69737;BME280;64476;55.004;73.342;2023-05-19T00:39:37;102127.09;;;4.37;37.22
69737;BME280;64476;55.004;73.342;2023-05-19T00:42:40;102138.25;;;4.39;37.52
69737;BME280;64476;55.004;73.342;2023-05-19T00:45:43;102109.50;;;4.25;37.29
69737;BME280;64476;55.004;73.342;2023-05-19T00:48:44;102151.47;;;4.52;36.92
69737;BME280;64476;55.004;73.342;2023-05-19T00:51:46;102108.16;;;4.34;37.26
69737;BME280;64476;55.004;73.342;2023-05-19T00:54:50;102151.63;;;4.65;37.23
69737;BME280;64476;55.004;73.342;2023-05-19T00:57:53;102142.16;;;4.64;37.45
69737;BME280;64476;55.004;73.342;2023-05-19T01:00:58;102124.88;;;4.63;37.38
69737;BME280;64476;55.004;73.342;2023-05-19T01:04:07;102147.03;;;4.86;37.50
69737;BME280;64476;55.004;73.342;2023-05-19T01:07:10;102122.94;;;4.82;36.78
69737;BME280;64476;55.004;73.342;2023-05-19T01:10:21;102146.44;;;5.12;36.87
69737;BME280;64476;55.004;73.342;2023-05-19T01:13:22;102154.84;;;5.17;36.80
69737;BME280;64476;55.004;73.342;2023-05-19T01:16:30;102146.75;;;5.22;37.06
69737;BME280;64476;55.004;73.342;2023-05-19T01:30:10;102149.78;;;5.60;36.58
69737;BME280;64476;55.004;73.342;2023-05-19T01:33:14;102110.72;;;5.44;36.66
69737;BME280;64476;55.004;73.342;2023-05-19T01:36:16;102121.03;;;5.62;36.59
69737;BME280;64476;55.004;73.342;2023-05-19T01:39:24;102146.31;;;5.90;36.53
69737;BME280;64476;55.004;73.342;2023-05-19T01:42:33;102125.53;;;5.88;36.62
69737;BME280;64476;55.004;73.342;2023-05-19T01:45:40;102150.25;;;6.11;36.38
69737;BME280;64476;55.004;73.342;2023-05-19T01:48:43;102139.34;;;6.19;36.17
69737;BME280;64476;55.004;73.342;2023-05-19T01:51:45;102151.50;;;6.34;36.24
69737;BME280;64476;55.004;73.342;2023-05-19T01:54:47;102129.59;;;6.37;36.50
69737;BME280;64476;55.004;73.342;2023-05-19T01:58:05;102145.72;;;6.58;36.48
69737;BME280;64476;55.004;73.342;2023-05-19T02:01:17;102141.31;;;6.73;35.97
69737;BME280;64476;55.004;73.342;2023-05-19T02:04:56;102142.00;;;6.89;36.11
69737;BME280;64476;55.004;73.342;2023-05-19T02:08:11;102094.09;;;6.76;35.61
69737;BME280;64476;55.004;73.342;2023-05-19T02:14:57;102106.97;;;7.06;35.65
69737;BME280;64476;55.004;73.342;2023-05-19T02:18:33;102109.59;;;7.19;35.29
69737;BME280;64476;55.004;73.342;2023-05-19T02:21:35;102127.78;;;7.47;35.37
69737;BME280;64476;55.004;73.342;2023-05-19T02:24:41;102112.00;;;7.49;35.24
69737;BME280;64476;55.004;73.342;2023-05-19T02:27:44;102131.69;;;7.80;35.24
69737;BME280;64476;55.004;73.342;2023-05-19T02:30:46;102118.44;;;7.96;34.91
69737;BME280;64476;55.004;73.342;2023-05-19T02:33:48;102137.56;;;8.22;34.65
69737;BME280;64476;55.004;73.342;2023-05-19T02:36:50;102111.09;;;8.26;34.51
69737;BME280;64476;55.004;73.342;2023-05-19T02:39:56;102093.38;;;8.30;34.18
69737;BME280;64476;55.004;73.342;2023-05-19T02:42:58;102136.03;;;8.69;33.97
69737;BME280;64476;55.004;73.342;2023-05-19T02:46:00;102106.81;;;8.62;32.96
69737;BME280;64476;55.004;73.342;2023-05-19T02:49:02;102131.53;;;8.95;32.91
69737;BME280;64476;55.004;73.342;2023-05-19T02:52:04;102117.66;;;9.05;32.46
69737;BME280;64476;55.004;73.342;2023-05-19T02:55:07;102131.50;;;9.32;32.67
69737;BME280;64476;55.004;73.342;2023-05-19T02:58:08;102103.94;;;9.26;32.62
69737;BME280;64476;55.004;73.342;2023-05-19T03:01:11;102138.88;;;9.62;32.27
69737;BME280;64476;55.004;73.342;2023-05-19T03:04:13;102132.72;;;9.74;32.10
69737;BME280;64476;55.004;73.342;2023-05-19T03:07:14;102132.38;;;9.90;31.98
69737;BME280;64476;55.004;73.342;2023-05-19T03:10:16;102093.22;;;9.87;30.95
69737;BME280;64476;55.004;73.342;2023-05-19T03:13:18;102117.00;;;10.08;30.68
69737;BME280;64476;55.004;73.342;2023-05-19T03:16:20;102114.84;;;10.24;30.73
69737;BME280;64476;55.004;73.342;2023-05-19T03:19:23;102102.78;;;10.33;30.89
69737;BME280;64476;55.004;73.342;2023-05-19T03:22:25;102123.31;;;10.61;30.05
69737;BME280;64476;55.004;73.342;2023-05-19T03:25:27;102126.78;;;10.73;30.24
69737;BME280;64476;55.004;73.342;2023-05-19T03:28:34;102095.72;;;10.67;30.07
69737;BME280;64476;55.004;73.342;2023-05-19T03:31:38;102060.91;;;10.74;29.46
69737;BME280;64476;55.004;73.342;2023-05-19T03:34:43;102086.88;;;11.00;29.27
69737;BME280;64476;55.004;73.342;2023-05-19T03:38:19;102114.00;;;11.33;28.50
69737;BME280;64476;55.004;73.342;2023-05-19T03:42:02;102107.53;;;11.37;28.76
69737;BME280;64476;55.004;73.342;2023-05-19T03:45:04;102082.94;;;11.27;28.71
69737;BME280;64476;55.004;73.342;2023-05-19T03:48:06;102082.44;;;11.33;28.24
69737;BME280;64476;55.004;73.342;2023-05-19T03:51:26;102081.63;;;11.42;27.71
69737;BME280;64476;55.004;73.342;2023-05-19T03:54:38;102052.44;;;11.45;27.60
69737;BME280;64476;55.004;73.342;2023-05-19T03:57:40;102040.28;;;11.54;27.42
69737;BME280;64476;55.004;73.342;2023-05-19T04:00:44;102086.25;;;11.91;26.93
69737;BME280;64476;55.004;73.342;2023-05-19T04:03:45;102077.38;;;11.92;26.94
69737;BME280;64476;55.004;73.342;2023-05-19T04:06:53;102096.78;;;12.22;26.96
69737;BME280;64476;55.004;73.342;2023-05-19T04:09:56;102096.00;;;12.41;26.82
69737;BME280;64476;55.004;73.342;2023-05-19T04:12:58;101994.44;;;11.87;26.49
69737;BME280;64476;55.004;73.342;2023-05-19T04:16:08;102052.13;;;12.30;25.87
69737;BME280;64476;55.004;73.342;2023-05-19T04:19:12;102088.97;;;12.61;25.74
69737;BME280;64476;55.004;73.342;2023-05-19T04:22:15;102088.56;;;12.65;25.58
69737;BME280;64476;55.004;73.342;2023-05-19T04:25:16;102089.13;;;12.69;25.63
69737;BME280;64476;55.004;73.342;2023-05-19T04:28:22;102093.88;;;12.75;24.95
69737;BME280;64476;55.004;73.342;2023-05-19T04:31:24;102103.31;;;12.78;25.36
69737;BME280;64476;55.004;73.342;2023-05-19T04:34:27;102090.28;;;12.86;25.26
69737;BME280;64476;55.004;73.342;2023-05-19T04:37:29;102093.47;;;12.99;25.36
69737;BME280;64476;55.004;73.342;2023-05-19T04:40:35;102052.25;;;12.98;25.02
69737;BME280;64476;55.004;73.342;2023-05-19T04:43:38;102068.22;;;13.06;24.32
69737;BME280;64476;55.004;73.342;2023-05-19T04:46:43;102051.81;;;13.12;24.43
69737;BME280;64476;55.004;73.342;2023-05-19T04:49:45;102077.75;;;13.27;24.06
69737;BME280;64476;55.004;73.342;2023-05-19T04:52:48;102099.97;;;13.34;24.20
69737;BME280;64476;55.004;73.342;2023-05-19T04:55:50;102077.75;;;13.36;23.93
69737;BME280;64476;55.004;73.342;2023-05-19T04:58:52;102051.09;;;13.30;23.67
69737;BME280;64476;55.004;73.342;2023-05-19T05:05:18;102077.75;;;13.36;23.64
69737;BME280;64476;55.004;73.342;2023-05-19T05:08:22;102004.59;;;13.00;24.02
69737;BME280;64476;55.004;73.342;2023-05-19T05:11:25;102054.00;;;13.46;24.06
69737;BME280;64476;55.004;73.342;2023-05-19T05:14:33;102070.66;;;13.56;23.84
69737;BME280;64476;55.004;73.342;2023-05-19T05:17:44;102063.34;;;13.78;24.56
69737;BME280;64476;55.004;73.342;2023-05-19T05:20:47;102023.06;;;13.76;23.94
69737;BME280;64476;55.004;73.342;2023-05-19T05:23:50;102079.31;;;14.23;23.61
69737;BME280;64476;55.004;73.342;2023-05-19T05:27:30;102058.34;;;14.40;23.17
69737;BME280;64476;55.004;73.342;2023-05-19T05:30:33;102069.31;;;14.63;23.19
69737;BME280;64476;55.004;73.342;2023-05-19T05:33:36;102072.19;;;14.69;22.45
69737;BME280;64476;55.004;73.342;2023-05-19T05:36:37;102067.81;;;14.60;22.36
69737;BME280;64476;55.004;73.342;2023-05-19T05:40:24;102047.75;;;14.40;22.92
69737;BME280;64476;55.004;73.342;2023-05-19T05:43:28;102036.88;;;14.43;22.82
69737;BME280;64476;55.004;73.342;2023-05-19T05:46:34;102034.59;;;14.48;22.14
69737;BME280;64476;55.004;73.342;2023-05-19T05:49:36;102058.72;;;14.63;22.34
69737;BME280;64476;55.004;73.342;2023-05-19T05:52:40;102064.34;;;14.77;22.05
69737;BME280;64476;55.004;73.342;2023-05-19T05:55:47;102005.81;;;14.63;22.22
69737;BME280;64476;55.004;73.342;2023-05-19T05:58:50;102053.31;;;15.00;21.95
69737;BME280;64476;55.004;73.342;2023-05-19T06:01:53;102045.59;;;15.06;21.97
69737;BME280;64476;55.004;73.342;2023-05-19T06:04:55;102036.69;;;15.08;21.82
69737;BME280;64476;55.004;73.342;2023-05-19T06:07:57;102025.31;;;15.15;21.98
69737;BME280;64476;55.004;73.342;2023-05-19T06:11:03;102032.63;;;15.47;21.83
69737;BME280;64476;55.004;73.342;2023-05-19T06:14:13;102035.09;;;15.67;21.72
69737;BME280;64476;55.004;73.342;2023-05-19T06:17:35;102018.72;;;15.71;21.01
69737;BME280;64476;55.004;73.342;2023-05-19T06:20:37;102008.19;;;15.88;20.90
69737;BME280;64476;55.004;73.342;2023-05-19T06:23:42;101983.69;;;15.94;21.04
69737;BME280;64476;55.004;73.342;2023-05-19T06:26:45;101987.84;;;15.96;20.74
69737;BME280;64476;55.004;73.342;2023-05-19T06:29:48;101931.41;;;15.70;20.98
69737;BME280;64476;55.004;73.342;2023-05-19T06:32:50;101978.78;;;16.23;20.63
69737;BME280;64476;55.004;73.342;2023-05-19T06:35:54;102008.03;;;16.48;21.07
69737;BME280;64476;55.004;73.342;2023-05-19T06:39:30;101896.41;;;16.00;20.33
69737;BME280;64476;55.004;73.342;2023-05-19T06:42:32;101998.44;;;16.63;20.46
69737;BME280;64476;55.004;73.342;2023-05-19T06:45:50;101953.59;;;16.36;20.52
69737;BME280;64476;55.004;73.342;2023-05-19T06:48:53;101943.00;;;16.27;21.21
69737;BME280;64476;55.004;73.342;2023-05-19T06:51:58;101974.72;;;16.70;20.61
69737;BME280;64476;55.004;73.342;2023-05-19T06:55:00;101974.06;;;16.84;20.50
69737;BME280;64476;55.004;73.342;2023-05-19T06:58:05;101970.22;;;16.87;20.27
69737;BME280;64476;55.004;73.342;2023-05-19T07:01:07;101960.59;;;16.94;20.14
69737;BME280;64476;55.004;73.342;2023-05-19T07:04:23;101961.75;;;17.08;19.71
69737;BME280;64476;55.004;73.342;2023-05-19T07:07:25;101959.44;;;16.96;19.80
69737;BME280;64476;55.004;73.342;2023-05-19T07:10:27;101946.16;;;16.96;20.11
69737;BME280;64476;55.004;73.342;2023-05-19T07:16:35;101946.75;;;17.23;19.55
69737;BME280;64476;55.004;73.342;2023-05-19T07:19:37;101923.06;;;17.05;19.61
69737;BME280;64476;55.004;73.342;2023-05-19T07:22:39;101947.16;;;17.04;19.49
69737;BME280;64476;55.004;73.342;2023-05-19T07:25:43;101947.13;;;17.12;19.50
69737;BME280;64476;55.004;73.342;2023-05-19T07:28:49;101946.13;;;17.21;19.21
69737;BME280;64476;55.004;73.342;2023-05-19T07:31:52;101935.13;;;17.32;19.60
69737;BME280;64476;55.004;73.342;2023-05-19T07:35:29;101924.16;;;17.43;19.55
69737;BME280;64476;55.004;73.342;2023-05-19T07:38:31;101930.69;;;17.64;19.74
69737;BME280;64476;55.004;73.342;2023-05-19T07:41:36;101931.16;;;17.67;19.91
69737;BME280;64476;55.004;73.342;2023-05-19T07:44:37;101903.81;;;17.59;18.91
69737;BME280;64476;55.004;73.342;2023-05-19T07:47:43;101923.53;;;17.73;18.58
69737;BME280;64476;55.004;73.342;2023-05-19T07:50:47;101900.09;;;17.68;19.26
69737;BME280;64476;55.004;73.342;2023-05-19T07:53:56;101906.16;;;17.85;19.23
69737;BME280;64476;55.004;73.342;2023-05-19T07:56:57;101905.50;;;17.83;19.02
69737;BME280;64476;55.004;73.342;2023-05-19T08:00:03;101876.25;;;17.83;18.61
69737;BME280;64476;55.004;73.342;2023-05-19T08:03:46;101892.66;;;17.94;18.25
69737;BME280;64476;55.004;73.342;2023-05-19T08:06:48;101878.56;;;17.86;18.79
69737;BME280;64476;55.004;73.342;2023-05-19T08:09:50;101887.84;;;17.90;18.83
69737;BME280;64476;55.004;73.342;2023-05-19T08:12:52;101874.31;;;18.00;19.06
69737;BME280;64476;55.004;73.342;2023-05-19T08:15:54;101868.34;;;17.98;18.47
69737;BME280;64476;55.004;73.342;2023-05-19T08:19:02;101826.28;;;17.55;18.29
69737;BME280;64476;55.004;73.342;2023-05-19T08:22:11;101859.53;;;17.74;18.01
69737;BME280;64476;55.004;73.342;2023-05-19T08:25:13;101844.00;;;17.63;18.24
69737;BME280;64476;55.004;73.342;2023-05-19T08:28:17;101830.63;;;17.48;18.27
69737;BME280;64476;55.004;73.342;2023-05-19T08:31:21;101819.19;;;17.48;18.39
69737;BME280;64476;55.004;73.342;2023-05-19T08:34:23;101872.44;;;17.85;18.08
69737;BME280;64476;55.004;73.342;2023-05-19T08:37:25;101838.97;;;17.68;18.02
69737;BME280;64476;55.004;73.342;2023-05-19T08:40:28;101861.13;;;17.83;17.90
69737;BME280;64476;55.004;73.342;2023-05-19T08:43:32;101804.94;;;17.63;17.93
69737;BME280;64476;55.004;73.342;2023-05-19T08:46:46;101844.88;;;18.01;18.12
69737;BME280;64476;55.004;73.342;2023-05-19T08:49:51;101819.50;;;17.99;18.66
69737;BME280;64476;55.004;73.342;2023-05-19T08:53:33;101834.50;;;18.14;17.45
69737;BME280;64476;55.004;73.342;2023-05-19T08:57:06;101811.13;;;18.02;17.59
69737;BME280;64476;55.004;73.342;2023-05-19T09:00:08;101825.78;;;17.98;17.48
69737;BME280;64476;55.004;73.342;2023-05-19T09:03:22;101785.34;;;17.64;17.72
69737;BME280;64476;55.004;73.342;2023-05-19T09:06:26;101846.25;;;17.97;17.46
69737;BME280;64476;55.004;73.342;2023-05-19T09:09:29;101826.41;;;17.85;17.38
69737;BME280;64476;55.004;73.342;2023-05-19T09:12:30;101800.41;;;17.72;17.47
69737;BME280;64476;55.004;73.342;2023-05-19T09:15:34;101812.22;;;17.92;17.55
69737;BME280;64476;55.004;73.342;2023-05-19T09:18:37;101814.53;;;17.95;17.30
69737;BME280;64476;55.004;73.342;2023-05-19T09:21:57;101780.84;;;17.88;17.35
69737;BME280;64476;55.004;73.342;2023-05-19T09:25:00;101796.38;;;17.99;17.35
69737;BME280;64476;55.004;73.342;2023-05-19T09:28:02;101827.09;;;18.02;16.98
69737;BME280;64476;55.004;73.342;2023-05-19T09:31:08;101812.69;;;17.96;17.50
69737;BME280;64476;55.004;73.342;2023-05-19T09:34:12;101783.47;;;17.73;17.46
69737;BME280;64476;55.004;73.342;2023-05-19T09:37:13;101809.63;;;17.84;17.28
69737;BME280;64476;55.004;73.342;2023-05-19T09:43:54;101700.31;;;17.41;17.95
69737;BME280;64476;55.004;73.342;2023-05-19T09:47:32;101787.50;;;18.07;17.76
69737;BME280;64476;55.004;73.342;2023-05-19T09:50:36;101791.81;;;18.08;17.96
69737;BME280;64476;55.004;73.342;2023-05-19T09:54:23;101761.63;;;18.01;17.66
69737;BME280;64476;55.004;73.342;2023-05-19T09:57:25;101773.13;;;18.16;17.66
69737;BME280;64476;55.004;73.342;2023-05-19T10:00:30;101758.19;;;18.15;17.79
69737;BME280;64476;55.004;73.342;2023-05-19T10:04:04;101772.34;;;18.30;17.24
69737;BME280;64476;55.004;73.342;2023-05-19T10:07:09;101754.53;;;18.16;17.59
69737;BME280;64476;55.004;73.342;2023-05-19T10:10:17;101719.78;;;18.17;17.44
69737;BME280;64476;55.004;73.342;2023-05-19T10:13:22;101756.84;;;18.63;17.35
69737;BME280;64476;55.004;73.342;2023-05-19T10:16:25;101727.47;;;18.57;17.02
69737;BME280;64476;55.004;73.342;2023-05-19T10:19:28;101735.53;;;18.78;16.90
69737;BME280;64476;55.004;73.342;2023-05-19T10:22:30;101737.38;;;18.93;17.14
69737;BME280;64476;55.004;73.342;2023-05-19T10:25:33;101755.88;;;19.15;16.75
69737;BME280;64476;55.004;73.342;2023-05-19T10:28:38;101735.19;;;19.18;16.65
69737;BME280;64476;55.004;73.342;2023-05-19T10:32:16;101734.78;;;19.35;16.76
69737;BME280;64476;55.004;73.342;2023-05-19T10:39:06;101714.06;;;19.59;16.74
69737;BME280;64476;55.004;73.342;2023-05-19T10:45:52;101726.72;;;20.56;16.00
69737;BME280;64476;55.004;73.342;2023-05-19T10:48:55;101705.59;;;20.68;15.96
69737;BME280;64476;55.004;73.342;2023-05-19T10:51:56;101728.09;;;21.00;15.47
69737;BME280;64476;55.004;73.342;2023-05-19T10:54:59;101698.16;;;21.24;15.30
69737;BME280;64476;55.004;73.342;2023-05-19T10:58:04;101696.16;;;21.80;15.23
69737;BME280;64476;55.004;73.342;2023-05-19T11:01:07;101703.06;;;22.34;15.08
69737;BME280;64476;55.004;73.342;2023-05-19T11:04:10;101686.22;;;22.78;14.55
69737;BME280;64476;55.004;73.342;2023-05-19T11:07:17;101703.28;;;23.22;14.01
69737;BME280;64476;55.004;73.342;2023-05-19T11:10:23;101700.63;;;23.47;13.79
69737;BME280;64476;55.004;73.342;2023-05-19T11:13:26;101693.16;;;23.81;13.25
69737;BME280;64476;55.004;73.342;2023-05-19T11:16:29;101683.56;;;23.91;13.22
69737;BME280;64476;55.004;73.342;2023-05-19T11:19:33;101685.13;;;24.36;13.18
69737;BME280;64476;55.004;73.342;2023-05-19T11:22:36;101697.19;;;24.63;12.67
69737;BME280;64476;55.004;73.342;2023-05-19T11:25:42;101701.47;;;24.53;13.00
69737;BME280;64476;55.004;73.342;2023-05-19T11:28:46;101689.84;;;24.40;12.96
69737;BME280;64476;55.004;73.342;2023-05-19T11:31:48;101667.84;;;23.45;13.58
69737;BME280;64476;55.004;73.342;2023-05-19T11:34:54;101677.66;;;22.56;14.28
69737;BME280;64476;55.004;73.342;2023-05-19T11:38:01;101685.03;;;21.89;14.70
69737;BME280;64476;55.004;73.342;2023-05-19T11:41:08;101682.97;;;21.45;15.43
69737;BME280;64476;55.004;73.342;2023-05-19T11:44:10;101688.69;;;21.22;15.44
69737;BME280;64476;55.004;73.342;2023-05-19T11:47:16;101683.81;;;21.52;15.57
69737;BME280;64476;55.004;73.342;2023-05-19T11:50:18;101665.47;;;21.62;15.25
69737;BME280;64476;55.004;73.342;2023-05-19T11:53:21;101564.34;;;21.19;14.97
69737;BME280;64476;55.004;73.342;2023-05-19T11:56:23;101671.84;;;21.81;14.93
69737;BME280;64476;55.004;73.342;2023-05-19T11:59:35;101635.88;;;21.24;15.22
69737;BME280;64476;55.004;73.342;2023-05-19T12:02:48;101654.47;;;20.77;15.80
69737;BME280;64476;55.004;73.342;2023-05-19T12:05:56;101670.59;;;20.49;16.14
69737;BME280;64476;55.004;73.342;2023-05-19T12:08:58;101669.34;;;20.10;16.55
69737;BME280;64476;55.004;73.342;2023-05-19T12:12:02;101626.84;;;19.46;16.84
69737;BME280;64476;55.004;73.342;2023-05-19T12:15:05;101648.78;;;19.27;17.25
69737;BME280;64476;55.004;73.342;2023-05-19T12:18:07;101650.59;;;18.98;17.46
69737;BME280;64476;55.004;73.342;2023-05-19T12:21:09;101632.75;;;18.62;17.66
69737;BME280;64476;55.004;73.342;2023-05-19T12:24:10;101618.13;;;18.37;18.04
69737;BME280;64476;55.004;73.342;2023-05-19T12:27:21;101633.06;;;18.38;18.55
69737;BME280;64476;55.004;73.342;2023-05-19T12:30:28;101621.88;;;18.13;18.44
69737;BME280;64476;55.004;73.342;2023-05-19T12:33:32;101641.50;;;18.12;19.32
69737;BME280;64476;55.004;73.342;2023-05-19T12:36:41;101610.31;;;17.76;19.11
69737;BME280;64476;55.004;73.342;2023-05-19T12:39:48;101612.22;;;17.67;19.21
69737;BME280;64476;55.004;73.342;2023-05-19T12:42:51;101613.69;;;17.55;19.24
69737;BME280;64476;55.004;73.342;2023-05-19T12:46:11;101649.63;;;17.66;19.68
69737;BME280;64476;55.004;73.342;2023-05-19T12:49:23;101633.28;;;17.54;19.76
69737;BME280;64476;55.004;73.342;2023-05-19T12:52:27;101635.50;;;17.51;19.56
69737;BME280;64476;55.004;73.342;2023-05-19T12:55:29;101640.13;;;17.49;19.50
69737;BME280;64476;55.004;73.342;2023-05-19T12:58:32;101603.03;;;17.40;19.50
69737;BME280;64476;55.004;73.342;2023-05-19T13:01:35;101644.00;;;17.61;19.37
69737;BME280;64476;55.004;73.342;2023-05-19T13:04:36;101649.00;;;17.41;19.50
69737;BME280;64476;55.004;73.342;2023-05-19T13:07:39;101635.19;;;17.22;19.62
69737;BME280;64476;55.004;73.342;2023-05-19T13:10:42;101590.03;;;16.77;19.75
69737;BME280;64476;55.004;73.342;2023-05-19T13:13:44;101624.31;;;16.86;19.95
69737;BME280;64476;55.004;73.342;2023-05-19T13:16:46;101587.28;;;16.62;20.17
69737;BME280;64476;55.004;73.342;2023-05-19T13:19:48;101626.06;;;16.71;20.50
69737;BME280;64476;55.004;73.342;2023-05-19T13:22:50;101628.06;;;16.69;20.18
69737;BME280;64476;55.004;73.342;2023-05-19T13:25:52;101647.25;;;16.79;20.09
69737;BME280;64476;55.004;73.342;2023-05-19T13:28:56;101649.06;;;16.79;20.15
69737;BME280;64476;55.004;73.342;2023-05-19T13:31:58;101638.56;;;16.62;20.19
69737;BME280;64476;55.004;73.342;2023-05-19T13:35:00;101639.59;;;16.53;20.54
69737;BME280;64476;55.004;73.342;2023-05-19T13:38:06;101624.56;;;16.37;20.50
69737;BME280;64476;55.004;73.342;2023-05-19T13:41:10;101638.63;;;16.38;20.52
69737;BME280;64476;55.004;73.342;2023-05-19T13:44:11;101659.50;;;16.41;20.49
69737;BME280;64476;55.004;73.342;2023-05-19T13:47:13;101662.03;;;16.34;20.68
69737;BME280;64476;55.004;73.342;2023-05-19T13:50:15;101653.91;;;16.27;20.69
69737;BME280;64476;55.004;73.342;2023-05-19T13:53:18;101655.59;;;16.20;20.80
69737;BME280;64476;55.004;73.342;2023-05-19T13:56:29;101613.13;;;15.89;20.87
69737;BME280;64476;55.004;73.342;2023-05-19T13:59:32;101644.22;;;15.95;21.14
69737;BME280;64476;55.004;73.342;2023-05-19T14:02:39;101638.31;;;15.85;21.26
69737;BME280;64476;55.004;73.342;2023-05-19T14:05:40;101662.44;;;15.98;21.00
69737;BME280;64476;55.004;73.342;2023-05-19T14:08:42;101667.59;;;15.92;21.06
69737;BME280;64476;55.004;73.342;2023-05-19T14:11:46;101653.03;;;15.79;21.14
69737;BME280;64476;55.004;73.342;2023-05-19T14:14:57;101629.88;;;15.65;21.31
69737;BME280;64476;55.004;73.342;2023-05-19T14:18:31;101669.28;;;15.76;21.27
69737;BME280;64476;55.004;73.342;2023-05-19T14:21:33;101641.59;;;15.54;21.33
69737;BME280;64476;55.004;73.342;2023-05-19T14:25:07;101668.78;;;15.57;21.56
69737;BME280;64476;55.004;73.342;2023-05-19T14:28:08;101657.84;;;15.43;21.64
69737;BME280;64476;55.004;73.342;2023-05-19T14:31:12;101668.09;;;15.38;21.66
69737;BME280;64476;55.004;73.342;2023-05-19T14:34:23;101660.66;;;15.34;21.76
69737;BME280;64476;55.004;73.342;2023-05-19T14:37:25;101651.53;;;15.20;21.88
69737;BME280;64476;55.004;73.342;2023-05-19T14:40:30;101676.19;;;15.28;22.11
69737;BME280;64476;55.004;73.342;2023-05-19T14:43:34;101575.50;;;14.63;22.32
69737;BME280;64476;55.004;73.342;2023-05-19T14:46:52;101667.41;;;15.12;22.21
69737;BME280;64476;55.004;73.342;2023-05-19T14:49:54;101681.81;;;15.09;22.40
69737;BME280;64476;55.004;73.342;2023-05-19T14:52:56;101646.69;;;14.82;22.32
69737;BME280;64476;55.004;73.342;2023-05-19T14:55:58;101677.31;;;14.93;22.58
69737;BME280;64476;55.004;73.342;2023-05-19T14:59:00;101648.81;;;14.71;22.82
69737;BME280;64476;55.004;73.342;2023-05-19T15:02:05;101655.34;;;14.67;22.98
69737;BME280;64476;55.004;73.342;2023-05-19T15:05:07;101658.34;;;14.64;22.80
69737;BME280;64476;55.004;73.342;2023-05-19T15:08:09;101680.84;;;14.68;23.01
69737;BME280;64476;55.004;73.342;2023-05-19T15:11:11;101674.31;;;14.54;22.97
69737;BME280;64476;55.004;73.342;2023-05-19T15:14:23;101673.13;;;14.48;23.15
69737;BME280;64476;55.004;73.342;2023-05-19T15:17:25;101647.59;;;14.23;23.38
69737;BME280;64476;55.004;73.342;2023-05-19T15:20:29;101669.38;;;14.25;23.58
69737;BME280;64476;55.004;73.342;2023-05-19T15:23:30;101677.09;;;14.18;23.47
69737;BME280;64476;55.004;73.342;2023-05-19T15:26:32;101687.16;;;14.15;23.78
69737;BME280;64476;55.004;73.342;2023-05-19T15:29:34;101694.06;;;14.07;23.92
69737;BME280;64476;55.004;73.342;2023-05-19T15:32:36;101693.03;;;14.00;23.99
69737;BME280;64476;55.004;73.342;2023-05-19T15:35:39;101681.66;;;13.82;24.00
69737;BME280;64476;55.004;73.342;2023-05-19T15:38:45;101665.44;;;13.59;24.43
69737;BME280;64476;55.004;73.342;2023-05-19T15:41:48;101682.97;;;13.60;24.52
69737;BME280;64476;55.004;73.342;2023-05-19T15:44:50;101699.47;;;13.62;24.38
69737;BME280;64476;55.004;73.342;2023-05-19T15:47:56;101681.63;;;13.38;24.66
69737;BME280;64476;55.004;73.342;2023-05-19T15:51:01;101667.81;;;13.26;24.88
69737;BME280;64476;55.004;73.342;2023-05-19T15:54:03;101665.25;;;13.17;24.93
69737;BME280;64476;55.004;73.342;2023-05-19T15:57:04;101691.13;;;13.31;25.28
69737;BME280;64476;55.004;73.342;2023-05-19T16:00:06;101663.78;;;13.04;24.96
69737;BME280;64476;55.004;73.342;2023-05-19T16:03:46;101693.06;;;13.11;25.19
69737;BME280;64476;55.004;73.342;2023-05-19T16:06:49;101664.84;;;12.94;25.65
69737;BME280;64476;55.004;73.342;2023-05-19T16:09:56;101686.88;;;13.02;25.84
69737;BME280;64476;55.004;73.342;2023-05-19T16:12:58;101695.09;;;12.99;25.76
69737;BME280;64476;55.004;73.342;2023-05-19T16:16:00;101659.69;;;12.74;25.81
69737;BME280;64476;55.004;73.342;2023-05-19T16:19:02;101664.38;;;12.71;25.68
69737;BME280;64476;55.004;73.342;2023-05-19T16:22:03;101696.41;;;12.85;25.71
69737;BME280;64476;55.004;73.342;2023-05-19T16:25:07;101696.31;;;12.77;26.03
69737;BME280;64476;55.004;73.342;2023-05-19T16:28:09;101698.66;;;12.71;25.95
69737;BME280;64476;55.004;73.342;2023-05-19T16:31:10;101699.94;;;12.66;25.94
69737;BME280;64476;55.004;73.342;2023-05-19T16:34:15;101694.69;;;12.57;26.28
69737;BME280;64476;55.004;73.342;2023-05-19T16:37:20;101668.44;;;12.37;26.28